KHRO/HRO METAR and TAF weather

Enter ICAO airport designator
Station Type Date Time Source
KHRO METAR 2021/05/06 22:53 UTC NOAA

KHRO 062253Z AUTO 32014G21KT 10SM CLR 20/03 A3016 RMK AO2 SLP207 T02000033


Station Type Date Time Source
KHRO Decoded METAR 2021/05/06 22:53 UTC NOAA

HARRISON BOONE COUNTY AIRPORT , AR, United States (KHRO) 36-16N 093-09W 417M
May 06, 2021 - 06:53 PM EDT / 2021.05.06 2253 UTC
Wind: from the NW (320 degrees) at 16 MPH (14 KT) gusting to 24 MPH (21 KT):0
Visibility: 10 mile(s):0
Sky conditions: clear
Temperature: 68.0 F (20.0 C)
Dew Point: 37.9 F (3.3 C)
Relative Humidity: 33%
Pressure (altimeter): 30.16 in. Hg (1021 hPa)
ob: KHRO 062253Z AUTO 32014G21KT 10SM CLR 20/03 A3016 RMK AO2 SLP207 T02000033
cycle: 23

Station Type Date Time Source
KHRO TAF 2021/05/13 06:42 UTC NOAA

TAF KHRO 130539Z 1306/1406 VRB03KT P6SM BKN080
FM131400 09005KT P6SM SCT100 SCT250
FM140000 14004KT P6SM SKC
AMD NOT SKED

Example: see airport list